sensor_id;sensor_type;location;lat;lon;timestamp;P1;durP1;ratioP1;P2;durP2;ratioP2
18322;SDS011;9287;49.456;11.064;2023-03-21T00:00:08;4.17;;;3.20;;
18322;SDS011;9287;49.456;11.064;2023-03-21T00:02:36;3.80;;;3.50;;
18322;SDS011;9287;49.456;11.064;2023-03-21T00:05:06;4.53;;;3.87;;
18322;SDS011;9287;49.456;11.064;2023-03-21T00:07:41;3.77;;;3.47;;
18322;SDS011;9287;49.456;11.064;2023-03-21T00:10:09;6.17;;;3.50;;
18322;SDS011;9287;49.456;11.064;2023-03-21T00:12:46;5.37;;;3.17;;
18322;SDS011;9287;49.456;11.064;2023-03-21T00:15:20;4.27;;;3.43;;
18322;SDS011;9287;49.456;11.064;2023-03-21T00:18:03;5.40;;;3.47;;
18322;SDS011;9287;49.456;11.064;2023-03-21T00:20:38;4.97;;;3.10;;
18322;SDS011;9287;49.456;11.064;2023-03-21T00:23:05;3.73;;;3.43;;
18322;SDS011;9287;49.456;11.064;2023-03-21T00:25:33;3.33;;;3.10;;
18322;SDS011;9287;49.456;11.064;2023-03-21T00:28:01;3.50;;;2.73;;
18322;SDS011;9287;49.456;11.064;2023-03-21T00:30:33;3.20;;;2.70;;
18322;SDS011;9287;49.456;11.064;2023-03-21T00:33:01;4.10;;;3.07;;
18322;SDS011;9287;49.456;11.064;2023-03-21T00:35:49;3.43;;;2.33;;
18322;SDS011;9287;49.456;11.064;2023-03-21T00:38:30;2.80;;;2.60;;
18322;SDS011;9287;49.456;11.064;2023-03-21T00:40:58;3.33;;;2.80;;
18322;SDS011;9287;49.456;11.064;2023-03-21T00:43:33;2.70;;;2.50;;
18322;SDS011;9287;49.456;11.064;2023-03-21T00:46:01;1.97;;;1.83;;
18322;SDS011;9287;49.456;11.064;2023-03-21T00:48:29;3.83;;;2.83;;
18322;SDS011;9287;49.456;11.064;2023-03-21T00:50:58;2.90;;;2.70;;
18322;SDS011;9287;49.456;11.064;2023-03-21T00:53:26;3.17;;;2.87;;
18322;SDS011;9287;49.456;11.064;2023-03-21T00:55:55;4.50;;;2.90;;
18322;SDS011;9287;49.456;11.064;2023-03-21T00:58:23;3.50;;;2.43;;
18322;SDS011;9287;49.456;11.064;2023-03-21T01:00:51;2.80;;;2.47;;
18322;SDS011;9287;49.456;11.064;2023-03-21T01:03:19;3.23;;;2.33;;
18322;SDS011;9287;49.456;11.064;2023-03-21T01:05:50;4.47;;;2.57;;
18322;SDS011;9287;49.456;11.064;2023-03-21T01:08:32;4.67;;;2.10;;
18322;SDS011;9287;49.456;11.064;2023-03-21T01:11:17;3.73;;;2.37;;
18322;SDS011;9287;49.456;11.064;2023-03-21T01:13:47;3.40;;;2.00;;
18322;SDS011;9287;49.456;11.064;2023-03-21T01:16:34;3.43;;;2.47;;
18322;SDS011;9287;49.456;11.064;2023-03-21T01:19:04;2.47;;;2.27;;
18322;SDS011;9287;49.456;11.064;2023-03-21T01:21:47;3.90;;;2.33;;
18322;SDS011;9287;49.456;11.064;2023-03-21T01:24:16;4.10;;;2.13;;
18322;SDS011;9287;49.456;11.064;2023-03-21T01:26:44;4.73;;;2.10;;
18322;SDS011;9287;49.456;11.064;2023-03-21T01:29:12;4.50;;;2.43;;
18322;SDS011;9287;49.456;11.064;2023-03-21T01:31:39;2.80;;;2.10;;
18322;SDS011;9287;49.456;11.064;2023-03-21T01:34:07;3.20;;;1.90;;
18322;SDS011;9287;49.456;11.064;2023-03-21T01:36:35;3.30;;;1.90;;
18322;SDS011;9287;49.456;11.064;2023-03-21T01:39:03;2.30;;;1.90;;
18322;SDS011;9287;49.456;11.064;2023-03-21T01:41:34;2.80;;;1.67;;
18322;SDS011;9287;49.456;11.064;2023-03-21T01:44:13;2.77;;;2.10;;
18322;SDS011;9287;49.456;11.064;2023-03-21T01:46:43;5.83;;;2.10;;
18322;SDS011;9287;49.456;11.064;2023-03-21T01:49:29;3.60;;;2.10;;
18322;SDS011;9287;49.456;11.064;2023-03-21T01:52:01;3.67;;;1.50;;
18322;SDS011;9287;49.456;11.064;2023-03-21T01:54:40;5.10;;;2.33;;
18322;SDS011;9287;49.456;11.064;2023-03-21T01:57:13;5.27;;;2.17;;
18322;SDS011;9287;49.456;11.064;2023-03-21T01:59:46;3.23;;;1.67;;
18322;SDS011;9287;49.456;11.064;2023-03-21T02:02:18;3.73;;;1.87;;
18322;SDS011;9287;49.456;11.064;2023-03-21T02:04:48;4.23;;;2.17;;
18322;SDS011;9287;49.456;11.064;2023-03-21T02:07:23;4.07;;;1.77;;
18322;SDS011;9287;49.456;11.064;2023-03-21T02:09:54;4.13;;;1.53;;
18322;SDS011;9287;49.456;11.064;2023-03-21T02:12:24;3.73;;;2.00;;
18322;SDS011;9287;49.456;11.064;2023-03-21T02:14:53;2.63;;;1.80;;
18322;SDS011;9287;49.456;11.064;2023-03-21T02:17:23;1.80;;;1.60;;
18322;SDS011;9287;49.456;11.064;2023-03-21T02:26:08;2.90;;;1.80;;
18322;SDS011;9287;49.456;11.064;2023-03-21T02:29:08;3.00;;;1.93;;
18322;SDS011;9287;49.456;11.064;2023-03-21T02:31:59;1.80;;;1.70;;
18322;SDS011;9287;49.456;11.064;2023-03-21T02:34:53;3.63;;;2.37;;
18322;SDS011;9287;49.456;11.064;2023-03-21T02:37:35;3.10;;;2.57;;
18322;SDS011;9287;49.456;11.064;2023-03-21T02:40:18;4.03;;;2.47;;
18322;SDS011;9287;49.456;11.064;2023-03-21T02:42:53;4.27;;;2.50;;
18322;SDS011;9287;49.456;11.064;2023-03-21T02:45:27;5.70;;;2.43;;
18322;SDS011;9287;49.456;11.064;2023-03-21T02:48:02;3.00;;;2.20;;
18322;SDS011;9287;49.456;11.064;2023-03-21T02:50:42;3.70;;;2.50;;
18322;SDS011;9287;49.456;11.064;2023-03-21T02:53:16;3.07;;;2.30;;
18322;SDS011;9287;49.456;11.064;2023-03-21T02:55:46;5.00;;;2.60;;
18322;SDS011;9287;49.456;11.064;2023-03-21T02:58:16;3.97;;;2.47;;
18322;SDS011;9287;49.456;11.064;2023-03-21T03:00:46;2.47;;;2.27;;
18322;SDS011;9287;49.456;11.064;2023-03-21T03:03:14;4.83;;;2.60;;
18322;SDS011;9287;49.456;11.064;2023-03-21T03:05:58;5.23;;;2.40;;
18322;SDS011;9287;49.456;11.064;2023-03-21T03:08:32;4.63;;;2.43;;
18322;SDS011;9287;49.456;11.064;2023-03-21T03:11:27;3.00;;;2.30;;
18322;SDS011;9287;49.456;11.064;2023-03-21T03:13:59;2.67;;;2.33;;
18322;SDS011;9287;49.456;11.064;2023-03-21T03:16:59;5.20;;;2.50;;
18322;SDS011;9287;49.456;11.064;2023-03-21T03:19:39;2.73;;;2.30;;
18322;SDS011;9287;49.456;11.064;2023-03-21T03:22:17;3.43;;;2.27;;
18322;SDS011;9287;49.456;11.064;2023-03-21T03:24:53;2.13;;;1.90;;
18322;SDS011;9287;49.456;11.064;2023-03-21T03:27:43;2.80;;;2.27;;
18322;SDS011;9287;49.456;11.064;2023-03-21T03:30:13;2.73;;;2.30;;
18322;SDS011;9287;49.456;11.064;2023-03-21T03:32:44;4.47;;;2.33;;
18322;SDS011;9287;49.456;11.064;2023-03-21T03:35:16;4.27;;;2.53;;
18322;SDS011;9287;49.456;11.064;2023-03-21T03:37:47;2.70;;;2.50;;
18322;SDS011;9287;49.456;11.064;2023-03-21T03:40:22;4.10;;;2.40;;
18322;SDS011;9287;49.456;11.064;2023-03-21T03:42:52;2.23;;;2.03;;
18322;SDS011;9287;49.456;11.064;2023-03-21T03:45:24;3.63;;;2.63;;
18322;SDS011;9287;49.456;11.064;2023-03-21T03:47:58;4.20;;;2.57;;
18322;SDS011;9287;49.456;11.064;2023-03-21T03:50:34;2.60;;;2.37;;
18322;SDS011;9287;49.456;11.064;2023-03-21T03:53:07;4.60;;;2.60;;
18322;SDS011;9287;49.456;11.064;2023-03-21T03:55:45;4.60;;;2.80;;
18322;SDS011;9287;49.456;11.064;2023-03-21T03:58:16;5.67;;;2.80;;
18322;SDS011;9287;49.456;11.064;2023-03-21T04:00:51;4.73;;;2.90;;
18322;SDS011;9287;49.456;11.064;2023-03-21T04:03:20;3.30;;;2.73;;
18322;SDS011;9287;49.456;11.064;2023-03-21T04:05:48;4.37;;;2.77;;
18322;SDS011;9287;49.456;11.064;2023-03-21T04:08:16;3.60;;;3.30;;
18322;SDS011;9287;49.456;11.064;2023-03-21T04:10:45;4.30;;;3.20;;
18322;SDS011;9287;49.456;11.064;2023-03-21T04:13:13;4.23;;;3.23;;
18322;SDS011;9287;49.456;11.064;2023-03-21T04:15:41;4.17;;;3.30;;
18322;SDS011;9287;49.456;11.064;2023-03-21T04:18:10;4.33;;;3.07;;
18322;SDS011;9287;49.456;11.064;2023-03-21T04:20:38;3.83;;;2.63;;
18322;SDS011;9287;49.456;11.064;2023-03-21T04:23:10;4.93;;;3.10;;
18322;SDS011;9287;49.456;11.064;2023-03-21T04:25:38;5.83;;;3.33;;
18322;SDS011;9287;49.456;11.064;2023-03-21T04:28:22;4.80;;;3.60;;
18322;SDS011;9287;49.456;11.064;2023-03-21T04:30:50;7.70;;;3.40;;
18322;SDS011;9287;49.456;11.064;2023-03-21T04:33:28;3.60;;;3.30;;
18322;SDS011;9287;49.456;11.064;2023-03-21T04:35:56;5.30;;;3.60;;
18322;SDS011;9287;49.456;11.064;2023-03-21T04:38:24;3.87;;;3.20;;
18322;SDS011;9287;49.456;11.064;2023-03-21T04:40:56;3.37;;;3.07;;
18322;SDS011;9287;49.456;11.064;2023-03-21T04:43:25;4.93;;;3.87;;
18322;SDS011;9287;49.456;11.064;2023-03-21T04:45:53;5.70;;;3.60;;
18322;SDS011;9287;49.456;11.064;2023-03-21T04:48:21;3.37;;;3.03;;
18322;SDS011;9287;49.456;11.064;2023-03-21T04:50:50;6.13;;;4.10;;
18322;SDS011;9287;49.456;11.064;2023-03-21T04:53:18;4.17;;;3.60;;
18322;SDS011;9287;49.456;11.064;2023-03-21T04:55:46;5.33;;;4.13;;
18322;SDS011;9287;49.456;11.064;2023-03-21T04:58:18;5.07;;;3.80;;
18322;SDS011;9287;49.456;11.064;2023-03-21T05:00:47;4.33;;;3.93;;
18322;SDS011;9287;49.456;11.064;2023-03-21T05:03:18;5.40;;;4.30;;
18322;SDS011;9287;49.456;11.064;2023-03-21T05:05:46;5.97;;;3.77;;
18322;SDS011;9287;49.456;11.064;2023-03-21T05:08:14;6.10;;;4.53;;
18322;SDS011;9287;49.456;11.064;2023-03-21T05:10:42;6.00;;;4.40;;
18322;SDS011;9287;49.456;11.064;2023-03-21T05:13:10;6.57;;;5.63;;
18322;SDS011;9287;49.456;11.064;2023-03-21T05:15:38;8.70;;;5.30;;
18322;SDS011;9287;49.456;11.064;2023-03-21T05:18:07;8.27;;;5.30;;
18322;SDS011;9287;49.456;11.064;2023-03-21T05:20:37;7.67;;;5.77;;
18322;SDS011;9287;49.456;11.064;2023-03-21T05:23:08;6.97;;;5.37;;
18322;SDS011;9287;49.456;11.064;2023-03-21T05:25:37;8.90;;;5.93;;
18322;SDS011;9287;49.456;11.064;2023-03-21T05:28:05;5.23;;;4.70;;
18322;SDS011;9287;49.456;11.064;2023-03-21T05:30:34;10.50;;;5.47;;
18322;SDS011;9287;49.456;11.064;2023-03-21T05:33:02;7.10;;;6.07;;
18322;SDS011;9287;49.456;11.064;2023-03-21T05:35:31;8.03;;;5.50;;
18322;SDS011;9287;49.456;11.064;2023-03-21T05:37:59;7.40;;;5.37;;
18322;SDS011;9287;49.456;11.064;2023-03-21T05:40:27;10.80;;;6.70;;
18322;SDS011;9287;49.456;11.064;2023-03-21T05:42:55;6.13;;;5.47;;
18322;SDS011;9287;49.456;11.064;2023-03-21T05:45:23;7.63;;;6.10;;
18322;SDS011;9287;49.456;11.064;2023-03-21T05:47:51;10.23;;;4.83;;
18322;SDS011;9287;49.456;11.064;2023-03-21T05:50:19;8.53;;;5.50;;
18322;SDS011;9287;49.456;11.064;2023-03-21T05:52:48;7.93;;;4.57;;
18322;SDS011;9287;49.456;11.064;2023-03-21T05:55:16;5.30;;;4.80;;
18322;SDS011;9287;49.456;11.064;2023-03-21T05:57:44;9.20;;;5.20;;
18322;SDS011;9287;49.456;11.064;2023-03-21T06:00:13;5.63;;;5.00;;
18322;SDS011;9287;49.456;11.064;2023-03-21T06:02:42;6.07;;;4.40;;
18322;SDS011;9287;49.456;11.064;2023-03-21T06:05:10;7.00;;;5.07;;
18322;SDS011;9287;49.456;11.064;2023-03-21T06:07:38;5.77;;;4.80;;
18322;SDS011;9287;49.456;11.064;2023-03-21T06:10:08;6.93;;;4.97;;
18322;SDS011;9287;49.456;11.064;2023-03-21T06:12:37;7.47;;;5.37;;
18322;SDS011;9287;49.456;11.064;2023-03-21T06:15:05;8.67;;;5.30;;
18322;SDS011;9287;49.456;11.064;2023-03-21T06:17:34;6.07;;;4.20;;
18322;SDS011;9287;49.456;11.064;2023-03-21T06:20:02;9.87;;;5.07;;
18322;SDS011;9287;49.456;11.064;2023-03-21T06:22:32;8.03;;;4.80;;
18322;SDS011;9287;49.456;11.064;2023-03-21T06:25:00;6.97;;;5.20;;
18322;SDS011;9287;49.456;11.064;2023-03-21T06:27:30;6.93;;;5.10;;
18322;SDS011;9287;49.456;11.064;2023-03-21T06:29:57;5.83;;;5.07;;
18322;SDS011;9287;49.456;11.064;2023-03-21T06:32:25;8.13;;;5.67;;
18322;SDS011;9287;49.456;11.064;2023-03-21T06:34:53;7.20;;;5.00;;
18322;SDS011;9287;49.456;11.064;2023-03-21T06:37:21;7.90;;;4.87;;
18322;SDS011;9287;49.456;11.064;2023-03-21T06:39:49;7.63;;;4.53;;
18322;SDS011;9287;49.456;11.064;2023-03-21T06:42:18;6.90;;;4.77;;
18322;SDS011;9287;49.456;11.064;2023-03-21T06:44:47;8.63;;;4.90;;
18322;SDS011;9287;49.456;11.064;2023-03-21T06:47:15;5.50;;;4.83;;
18322;SDS011;9287;49.456;11.064;2023-03-21T06:49:43;7.50;;;5.33;;
18322;SDS011;9287;49.456;11.064;2023-03-21T06:52:11;5.90;;;4.77;;
18322;SDS011;9287;49.456;11.064;2023-03-21T06:54:38;6.90;;;4.67;;
18322;SDS011;9287;49.456;11.064;2023-03-21T06:57:06;7.83;;;5.33;;
18322;SDS011;9287;49.456;11.064;2023-03-21T06:59:34;7.07;;;4.80;;
18322;SDS011;9287;49.456;11.064;2023-03-21T07:02:03;5.97;;;4.20;;
18322;SDS011;9287;49.456;11.064;2023-03-21T07:04:31;5.47;;;4.43;;
18322;SDS011;9287;49.456;11.064;2023-03-21T07:06:59;7.97;;;3.97;;
18322;SDS011;9287;49.456;11.064;2023-03-21T07:09:27;8.57;;;4.87;;
18322;SDS011;9287;49.456;11.064;2023-03-21T07:11:55;4.80;;;4.17;;
18322;SDS011;9287;49.456;11.064;2023-03-21T07:14:23;5.70;;;3.90;;
18322;SDS011;9287;49.456;11.064;2023-03-21T07:16:51;5.83;;;4.67;;
18322;SDS011;9287;49.456;11.064;2023-03-21T07:19:20;8.50;;;4.33;;
18322;SDS011;9287;49.456;11.064;2023-03-21T07:21:48;7.20;;;4.03;;
18322;SDS011;9287;49.456;11.064;2023-03-21T07:24:16;8.53;;;4.03;;
18322;SDS011;9287;49.456;11.064;2023-03-21T07:26:43;6.70;;;4.00;;
18322;SDS011;9287;49.456;11.064;2023-03-21T07:29:11;5.83;;;4.07;;
18322;SDS011;9287;49.456;11.064;2023-03-21T07:31:40;6.60;;;4.00;;
18322;SDS011;9287;49.456;11.064;2023-03-21T07:34:08;6.20;;;3.80;;
18322;SDS011;9287;49.456;11.064;2023-03-21T07:36:37;6.93;;;3.67;;
18322;SDS011;9287;49.456;11.064;2023-03-21T07:39:05;5.50;;;3.57;;
18322;SDS011;9287;49.456;11.064;2023-03-21T07:41:32;6.43;;;3.33;;
18322;SDS011;9287;49.456;11.064;2023-03-21T07:44:00;5.68;;;2.92;;
18322;SDS011;9287;49.456;11.064;2023-03-21T07:46:28;4.97;;;2.60;;
18322;SDS011;9287;49.456;11.064;2023-03-21T07:48:56;3.92;;;2.13;;
18322;SDS011;9287;49.456;11.064;2023-03-21T07:51:24;4.38;;;2.35;;
18322;SDS011;9287;49.456;11.064;2023-03-21T07:53:54;4.15;;;1.95;;
18322;SDS011;9287;49.456;11.064;2023-03-21T07:56:22;5.28;;;2.75;;
18322;SDS011;9287;49.456;11.064;2023-03-21T07:58:50;4.57;;;2.67;;
18322;SDS011;9287;49.456;11.064;2023-03-21T08:01:18;3.40;;;2.10;;
18322;SDS011;9287;49.456;11.064;2023-03-21T08:03:47;4.82;;;2.60;;
18322;SDS011;9287;49.456;11.064;2023-03-21T08:06:16;4.07;;;2.03;;
18322;SDS011;9287;49.456;11.064;2023-03-21T08:08:44;3.47;;;2.28;;
18322;SDS011;9287;49.456;11.064;2023-03-21T08:11:13;3.55;;;2.33;;
18322;SDS011;9287;49.456;11.064;2023-03-21T08:13:41;3.17;;;1.70;;
18322;SDS011;9287;49.456;11.064;2023-03-21T08:16:09;2.75;;;2.10;;
18322;SDS011;9287;49.456;11.064;2023-03-21T08:18:37;2.35;;;1.73;;
18322;SDS011;9287;49.456;11.064;2023-03-21T08:21:05;5.78;;;1.90;;
18322;SDS011;9287;49.456;11.064;2023-03-21T08:23:34;4.93;;;2.30;;
18322;SDS011;9287;49.456;11.064;2023-03-21T08:26:02;4.28;;;2.08;;
18322;SDS011;9287;49.456;11.064;2023-03-21T08:28:32;3.30;;;1.58;;
18322;SDS011;9287;49.456;11.064;2023-03-21T08:30:59;4.85;;;1.92;;
18322;SDS011;9287;49.456;11.064;2023-03-21T08:33:27;2.53;;;1.67;;
18322;SDS011;9287;49.456;11.064;2023-03-21T08:35:57;2.75;;;1.80;;
18322;SDS011;9287;49.456;11.064;2023-03-21T08:38:25;4.97;;;2.10;;
18322;SDS011;9287;49.456;11.064;2023-03-21T08:40:56;5.10;;;1.77;;
18322;SDS011;9287;49.456;11.064;2023-03-21T08:43:25;3.55;;;1.67;;
18322;SDS011;9287;49.456;11.064;2023-03-21T08:45:54;4.68;;;2.20;;
18322;SDS011;9287;49.456;11.064;2023-03-21T08:48:23;2.40;;;1.58;;
18322;SDS011;9287;49.456;11.064;2023-03-21T08:50:50;4.10;;;2.05;;
18322;SDS011;9287;49.456;11.064;2023-03-21T08:53:18;3.72;;;1.40;;
18322;SDS011;9287;49.456;11.064;2023-03-21T08:55:47;4.75;;;2.00;;
18322;SDS011;9287;49.456;11.064;2023-03-21T08:58:15;3.50;;;1.80;;
18322;SDS011;9287;49.456;11.064;2023-03-21T09:00:44;4.65;;;1.88;;
18322;SDS011;9287;49.456;11.064;2023-03-21T09:03:13;3.67;;;1.75;;
18322;SDS011;9287;49.456;11.064;2023-03-21T09:05:41;2.22;;;1.50;;
18322;SDS011;9287;49.456;11.064;2023-03-21T09:08:10;2.33;;;1.80;;
18322;SDS011;9287;49.456;11.064;2023-03-21T09:10:39;2.60;;;2.10;;
18322;SDS011;9287;49.456;11.064;2023-03-21T09:13:06;3.40;;;1.88;;
18322;SDS011;9287;49.456;11.064;2023-03-21T09:15:34;4.03;;;2.17;;
18322;SDS011;9287;49.456;11.064;2023-03-21T09:18:03;5.10;;;1.88;;
18322;SDS011;9287;49.456;11.064;2023-03-21T09:20:42;4.53;;;1.83;;
18322;SDS011;9287;49.456;11.064;2023-03-21T09:23:11;3.72;;;2.08;;
18322;SDS011;9287;49.456;11.064;2023-03-21T09:25:40;2.55;;;1.70;;
18322;SDS011;9287;49.456;11.064;2023-03-21T09:28:08;3.40;;;2.00;;
18322;SDS011;9287;49.456;11.064;2023-03-21T09:30:37;3.28;;;2.00;;
18322;SDS011;9287;49.456;11.064;2023-03-21T09:33:05;1.85;;;1.58;;
18322;SDS011;9287;49.456;11.064;2023-03-21T09:35:34;3.92;;;1.85;;
18322;SDS011;9287;49.456;11.064;2023-03-21T09:38:04;2.05;;;1.42;;
18322;SDS011;9287;49.456;11.064;2023-03-21T09:40:44;4.45;;;1.65;;
18322;SDS011;9287;49.456;11.064;2023-03-21T09:43:24;3.35;;;1.77;;
18322;SDS011;9287;49.456;11.064;2023-03-21T09:46:04;3.50;;;2.10;;
18322;SDS011;9287;49.456;11.064;2023-03-21T09:48:39;2.33;;;1.48;;
18322;SDS011;9287;49.456;11.064;2023-03-21T09:51:23;3.22;;;1.70;;
18322;SDS011;9287;49.456;11.064;2023-03-21T09:53:58;2.45;;;2.05;;
18322;SDS011;9287;49.456;11.064;2023-03-21T09:56:30;2.58;;;1.48;;
18322;SDS011;9287;49.456;11.064;2023-03-21T09:58:58;3.35;;;1.55;;
18322;SDS011;9287;49.456;11.064;2023-03-21T10:01:28;3.90;;;2.00;;
18322;SDS011;9287;49.456;11.064;2023-03-21T10:04:01;2.30;;;1.65;;
18322;SDS011;9287;49.456;11.064;2023-03-21T10:06:32;3.00;;;2.20;;
18322;SDS011;9287;49.456;11.064;2023-03-21T10:09:07;2.65;;;1.70;;
18322;SDS011;9287;49.456;11.064;2023-03-21T10:11:42;4.30;;;1.88;;
18322;SDS011;9287;49.456;11.064;2023-03-21T10:14:15;3.95;;;1.50;;
18322;SDS011;9287;49.456;11.064;2023-03-21T10:16:46;2.65;;;1.20;;
18322;SDS011;9287;49.456;11.064;2023-03-21T10:19:16;1.80;;;1.00;;
18322;SDS011;9287;49.456;11.064;2023-03-21T10:21:46;2.65;;;1.27;;
18322;SDS011;9287;49.456;11.064;2023-03-21T10:24:28;1.85;;;1.45;;
18322;SDS011;9287;49.456;11.064;2023-03-21T10:26:59;2.60;;;1.73;;
18322;SDS011;9287;49.456;11.064;2023-03-21T10:29:29;1.67;;;1.27;;
18322;SDS011;9287;49.456;11.064;2023-03-21T10:32:02;2.42;;;1.30;;
18322;SDS011;9287;49.456;11.064;2023-03-21T10:34:31;2.00;;;1.67;;
18322;SDS011;9287;49.456;11.064;2023-03-21T10:37:03;2.47;;;2.15;;
18322;SDS011;9287;49.456;11.064;2023-03-21T10:39:33;4.50;;;2.03;;
18322;SDS011;9287;49.456;11.064;2023-03-21T10:42:03;4.03;;;1.80;;
18322;SDS011;9287;49.456;11.064;2023-03-21T10:44:32;2.22;;;2.00;;
18322;SDS011;9287;49.456;11.064;2023-03-21T10:47:03;3.53;;;2.22;;
18322;SDS011;9287;49.456;11.064;2023-03-21T10:49:33;2.60;;;2.10;;
18322;SDS011;9287;49.456;11.064;2023-03-21T10:52:22;2.17;;;1.95;;
18322;SDS011;9287;49.456;11.064;2023-03-21T10:55:04;2.10;;;1.30;;
18322;SDS011;9287;49.456;11.064;2023-03-21T10:57:41;2.97;;;1.42;;
18322;SDS011;9287;49.456;11.064;2023-03-21T11:00:10;2.95;;;1.70;;
18322;SDS011;9287;49.456;11.064;2023-03-21T11:02:46;1.60;;;1.50;;
18322;SDS011;9287;49.456;11.064;2023-03-21T11:05:18;3.45;;;1.60;;
18322;SDS011;9287;49.456;11.064;2023-03-21T11:07:54;3.45;;;2.10;;
18322;SDS011;9287;49.456;11.064;2023-03-21T11:10:27;4.28;;;2.00;;
18322;SDS011;9287;49.456;11.064;2023-03-21T11:12:58;4.43;;;2.30;;
18322;SDS011;9287;49.456;11.064;2023-03-21T11:15:31;2.67;;;2.05;;
18322;SDS011;9287;49.456;11.064;2023-03-21T11:18:12;3.03;;;1.83;;
18322;SDS011;9287;49.456;11.064;2023-03-21T11:20:42;1.73;;;1.48;;
18322;SDS011;9287;49.456;11.064;2023-03-21T11:23:15;2.13;;;1.98;;
18322;SDS011;9287;49.456;11.064;2023-03-21T11:25:48;4.93;;;2.08;;
18322;SDS011;9287;49.456;11.064;2023-03-21T11:28:17;3.25;;;2.38;;
18322;SDS011;9287;49.456;11.064;2023-03-21T11:30:48;2.72;;;2.08;;
18322;SDS011;9287;49.456;11.064;2023-03-21T11:33:20;4.55;;;2.35;;
18322;SDS011;9287;49.456;11.064;2023-03-21T11:35:58;2.75;;;1.75;;
18322;SDS011;9287;49.456;11.064;2023-03-21T11:38:29;3.45;;;2.47;;
18322;SDS011;9287;49.456;11.064;2023-03-21T11:41:00;2.65;;;1.98;;
18322;SDS011;9287;49.456;11.064;2023-03-21T11:43:29;2.70;;;2.17;;
18322;SDS011;9287;49.456;11.064;2023-03-21T11:45:59;2.63;;;2.28;;
18322;SDS011;9287;49.456;11.064;2023-03-21T11:48:32;3.22;;;2.38;;
18322;SDS011;9287;49.456;11.064;2023-03-21T11:51:09;2.67;;;2.47;;
18322;SDS011;9287;49.456;11.064;2023-03-21T11:53:44;2.90;;;2.47;;
18322;SDS011;9287;49.456;11.064;2023-03-21T11:56:21;3.75;;;2.60;;
18322;SDS011;9287;49.456;11.064;2023-03-21T11:59:01;3.10;;;2.63;;
18322;SDS011;9287;49.456;11.064;2023-03-21T12:01:44;2.50;;;2.30;;
18322;SDS011;9287;49.456;11.064;2023-03-21T12:04:27;4.03;;;2.58;;
18322;SDS011;9287;49.456;11.064;2023-03-21T12:07:08;3.28;;;2.35;;
18322;SDS011;9287;49.456;11.064;2023-03-21T12:09:46;2.40;;;2.20;;
18322;SDS011;9287;49.456;11.064;2023-03-21T12:12:25;4.18;;;2.25;;
18322;SDS011;9287;49.456;11.064;2023-03-21T12:15:07;2.55;;;2.05;;
18322;SDS011;9287;49.456;11.064;2023-03-21T12:17:42;3.08;;;1.90;;
18322;SDS011;9287;49.456;11.064;2023-03-21T12:20:26;2.42;;;2.22;;
18322;SDS011;9287;49.456;11.064;2023-03-21T12:23:07;2.45;;;2.22;;
18322;SDS011;9287;49.456;11.064;2023-03-21T12:25:48;2.38;;;2.17;;
18322;SDS011;9287;49.456;11.064;2023-03-21T12:28:25;2.25;;;1.95;;
18322;SDS011;9287;49.456;11.064;2023-03-21T12:31:06;2.38;;;2.28;;
18322;SDS011;9287;49.456;11.064;2023-03-21T12:33:40;2.13;;;1.92;;
18322;SDS011;9287;49.456;11.064;2023-03-21T12:36:26;2.47;;;2.10;;
18322;SDS011;9287;49.456;11.064;2023-03-21T12:39:07;1.88;;;1.77;;
18322;SDS011;9287;49.456;11.064;2023-03-21T12:41:49;2.65;;;1.85;;
18322;SDS011;9287;49.456;11.064;2023-03-21T12:44:28;3.55;;;1.73;;
18322;SDS011;9287;49.456;11.064;2023-03-21T12:47:00;1.70;;;1.60;;
18322;SDS011;9287;49.456;11.064;2023-03-21T12:49:34;3.05;;;1.55;;
18322;SDS011;9287;49.456;11.064;2023-03-21T12:52:07;2.47;;;1.98;;
18322;SDS011;9287;49.456;11.064;2023-03-21T12:54:40;2.97;;;1.80;;
18322;SDS011;9287;49.456;11.064;2023-03-21T12:57:13;2.72;;;2.20;;
18322;SDS011;9287;49.456;11.064;2023-03-21T12:59:46;2.88;;;1.98;;
18322;SDS011;9287;49.456;11.064;2023-03-21T13:02:21;4.05;;;1.70;;
18322;SDS011;9287;49.456;11.064;2023-03-21T13:04:55;2.15;;;1.80;;
18322;SDS011;9287;49.456;11.064;2023-03-21T13:07:30;2.70;;;2.25;;
18322;SDS011;9287;49.456;11.064;2023-03-21T13:10:05;2.38;;;1.90;;
18322;SDS011;9287;49.456;11.064;2023-03-21T13:12:42;2.03;;;1.70;;
18322;SDS011;9287;49.456;11.064;2023-03-21T13:15:28;2.85;;;2.17;;
18322;SDS011;9287;49.456;11.064;2023-03-21T13:18:11;2.63;;;2.28;;
18322;SDS011;9287;49.456;11.064;2023-03-21T13:20:45;2.47;;;2.28;;
18322;SDS011;9287;49.456;11.064;2023-03-21T13:23:16;2.20;;;2.00;;
18322;SDS011;9287;49.456;11.064;2023-03-21T13:25:45;2.25;;;1.90;;
18322;SDS011;9287;49.456;11.064;2023-03-21T13:28:18;1.85;;;1.73;;
18322;SDS011;9287;49.456;11.064;2023-03-21T13:30:49;2.17;;;1.98;;
18322;SDS011;9287;49.456;11.064;2023-03-21T13:33:19;3.38;;;2.25;;
18322;SDS011;9287;49.456;11.064;2023-03-21T13:35:54;2.58;;;1.95;;
18322;SDS011;9287;49.456;11.064;2023-03-21T13:38:30;2.28;;;1.98;;
18322;SDS011;9287;49.456;11.064;2023-03-21T13:41:00;3.22;;;2.00;;
18322;SDS011;9287;49.456;11.064;2023-03-21T13:43:34;2.15;;;1.60;;
18322;SDS011;9287;49.456;11.064;2023-03-21T13:46:09;2.47;;;1.75;;
18322;SDS011;9287;49.456;11.064;2023-03-21T13:48:42;4.60;;;1.83;;
18322;SDS011;9287;49.456;11.064;2023-03-21T13:54:20;1.90;;;1.42;;
18322;SDS011;9287;49.456;11.064;2023-03-21T13:56:51;1.48;;;1.23;;
18322;SDS011;9287;49.456;11.064;2023-03-21T13:59:34;1.77;;;1.00;;
18322;SDS011;9287;49.456;11.064;2023-03-21T14:02:18;3.08;;;1.20;;
18322;SDS011;9287;49.456;11.064;2023-03-21T14:04:52;2.17;;;1.00;;
18322;SDS011;9287;49.456;11.064;2023-03-21T14:07:32;1.48;;;1.00;;
18322;SDS011;9287;49.456;11.064;2023-03-21T14:10:12;2.80;;;1.00;;
18322;SDS011;9287;49.456;11.064;2023-03-21T14:12:45;0.73;;;0.70;;
18322;SDS011;9287;49.456;11.064;2023-03-21T14:15:14;1.90;;;0.98;;
18322;SDS011;9287;49.456;11.064;2023-03-21T14:17:51;1.23;;;1.10;;
18322;SDS011;9287;49.456;11.064;2023-03-21T14:20:21;0.80;;;0.80;;
18322;SDS011;9287;49.456;11.064;2023-03-21T14:22:51;0.80;;;0.77;;
18322;SDS011;9287;49.456;11.064;2023-03-21T14:25:20;1.35;;;0.80;;
18322;SDS011;9287;49.456;11.064;2023-03-21T14:27:54;0.85;;;0.82;;
18322;SDS011;9287;49.456;11.064;2023-03-21T14:30:25;1.45;;;0.82;;
18322;SDS011;9287;49.456;11.064;2023-03-21T14:32:56;2.25;;;1.02;;
18322;SDS011;9287;49.456;11.064;2023-03-21T14:35:27;0.80;;;0.80;;
18322;SDS011;9287;49.456;11.064;2023-03-21T14:37:59;1.23;;;0.70;;
18322;SDS011;9287;49.456;11.064;2023-03-21T14:40:27;0.88;;;0.88;;
18322;SDS011;9287;49.456;11.064;2023-03-21T14:42:55;1.27;;;0.70;;
18322;SDS011;9287;49.456;11.064;2023-03-21T14:45:25;1.95;;;0.75;;
18322;SDS011;9287;49.456;11.064;2023-03-21T14:47:56;1.50;;;0.90;;
18322;SDS011;9287;49.456;11.064;2023-03-21T14:50:31;1.85;;;0.80;;
18322;SDS011;9287;49.456;11.064;2023-03-21T14:53:05;2.00;;;0.82;;
18322;SDS011;9287;49.456;11.064;2023-03-21T14:55:39;1.65;;;1.00;;
18322;SDS011;9287;49.456;11.064;2023-03-21T14:58:09;1.48;;;1.00;;
18322;SDS011;9287;49.456;11.064;2023-03-21T15:00:39;2.30;;;0.80;;
18322;SDS011;9287;49.456;11.064;2023-03-21T15:03:10;1.50;;;0.90;;
18322;SDS011;9287;49.456;11.064;2023-03-21T15:05:40;1.43;;;0.80;;
18322;SDS011;9287;49.456;11.064;2023-03-21T15:08:11;1.87;;;0.93;;
18322;SDS011;9287;49.456;11.064;2023-03-21T15:10:45;1.77;;;0.80;;
18322;SDS011;9287;49.456;11.064;2023-03-21T15:13:32;1.17;;;0.90;;
18322;SDS011;9287;49.456;11.064;2023-03-21T15:16:02;1.13;;;0.90;;
18322;SDS011;9287;49.456;11.064;2023-03-21T15:18:33;2.33;;;1.00;;
18322;SDS011;9287;49.456;11.064;2023-03-21T15:21:04;1.53;;;0.90;;
18322;SDS011;9287;49.456;11.064;2023-03-21T15:23:35;1.30;;;1.00;;
18322;SDS011;9287;49.456;11.064;2023-03-21T15:26:05;2.23;;;0.90;;